Time;durP1;ratioP1;P1;durP2;ratioP2;P2;SDS_P1;SDS_P2;PMS_P1;PMS_P2;Temp;Humidity;BMP_temperature;BMP_pressure;BME280_temperature;BME280_humidity;BME280_pressure;Samples;Min_cycle;Max_cycle;Signal;HPM_P1;HPM_P2
2023/12/23 00:01:58;;;;;;;11.05;2.00;;;14.90;1.00;;;;;;5033658;28;20408;-71
2023/12/23 00:04:24;;;;;;;14.38;2.72;;;14.80;1.00;;;;;;5034206;28;20090;-71
2023/12/23 00:06:49;;;;;;;16.40;2.78;;;14.80;1.00;;;;;;5034511;28;20033;-71
2023/12/23 00:09:15;;;;;;;16.77;2.50;;;15.00;1.00;;;;;;5034247;28;20033;-71
2023/12/23 00:11:41;;;;;;;12.98;2.67;;;14.80;1.00;;;;;;5033515;28;20041;-71
2023/12/23 00:14:07;;;;;;;13.35;2.70;;;15.10;1.00;;;;;;5034236;28;20428;-71
2023/12/23 00:16:33;;;;;;;22.55;3.67;;;14.80;1.00;;;;;;5034492;28;20045;-71
2023/12/23 00:18:58;;;;;;;16.80;2.60;;;14.70;1.00;;;;;;5036697;28;20047;-70
2023/12/23 00:21:24;;;;;;;18.52;2.80;;;14.60;1.00;;;;;;5051213;28;20576;-72
2023/12/23 00:23:49;;;;;;;25.48;7.13;;;14.70;1.00;;;;;;5033839;28;20106;-71
2023/12/23 00:26:15;;;;;;;17.45;3.10;;;14.80;1.00;;;;;;5017342;28;20033;-71
2023/12/23 00:28:40;;;;;;;17.98;3.72;;;14.80;1.00;;;;;;5034128;28;20555;-71
2023/12/23 00:31:06;;;;;;;22.98;4.40;;;15.00;1.00;;;;;;5033249;28;20090;-71
2023/12/23 00:33:31;;;;;;;14.05;2.60;;;14.60;1.00;;;;;;5034113;28;20469;-71
2023/12/23 00:35:57;;;;;;;17.48;3.60;;;14.80;1.00;;;;;;5033697;28;20047;-71
2023/12/23 00:38:23;;;;;;;12.70;2.75;;;15.00;1.00;;;;;;5033915;28;20048;-69
2023/12/23 00:40:48;;;;;;;19.67;3.47;;;15.00;1.00;;;;;;5034201;28;20045;-71
2023/12/23 00:43:14;;;;;;;24.83;2.85;;;14.90;1.00;;;;;;5033020;28;20059;-71
2023/12/23 00:45:39;;;;;;;18.73;3.08;;;14.70;1.00;;;;;;5017018;28;20393;-71
2023/12/23 00:48:06;;;;;;;18.77;3.80;;;14.70;1.00;;;;;;5033641;28;20446;-71
2023/12/23 00:50:32;;;;;;;14.80;3.10;;;14.90;1.00;;;;;;5033610;28;20123;-70
2023/12/23 00:53:00;;;;;;;12.90;2.60;;;15.00;1.00;;;;;;5032942;28;20120;-70
2023/12/23 00:55:26;;;;;;;22.17;2.90;;;15.50;1.00;;;;;;5033735;28;20404;-71
2023/12/23 00:57:51;;;;;;;15.02;2.63;;;15.60;1.00;;;;;;5033756;28;20044;-72
2023/12/23 01:00:17;;;;;;;20.27;2.83;;;;;;;;;;5033557;28;20574;-68
2023/12/23 01:02:43;;;;;;;13.60;2.67;;;15.10;1.00;;;;;;5032842;28;20604;-71
2023/12/23 01:05:09;;;;;;;16.88;3.00;;;15.10;1.00;;;;;;5051243;28;20064;-71
2023/12/23 01:07:36;;;;;;;16.08;3.35;;;14.90;1.00;;;;;;5051384;28;20037;-71
2023/12/23 01:10:01;;;;;;;11.93;2.28;;;14.90;1.00;;;;;;5017205;28;20518;-71
2023/12/23 01:12:27;;;;;;;16.02;2.55;;;15.10;1.00;;;;;;5032663;28;20068;-71
2023/12/23 01:14:53;;;;;;;18.25;2.20;;;15.50;1.00;;;;;;5036756;28;20040;-71
2023/12/23 01:17:19;;;;;;;23.48;3.13;;;15.60;1.00;;;;;;5037453;28;20485;-71
2023/12/23 01:19:44;;;;;;;12.60;2.40;;;15.20;1.00;;;;;;5055300;28;20469;-72
2023/12/23 01:22:10;;;;;;;14.45;2.17;;;15.10;1.00;;;;;;5054493;28;20039;-71
2023/12/23 01:24:35;;;;;;;15.73;3.20;;;15.00;1.00;;;;;;5037031;28;20037;-71
2023/12/23 01:27:01;;;;;;;10.10;2.00;;;15.40;1.00;;;;;;5037470;28;20037;-71
2023/12/23 01:29:26;;;;;;;21.15;2.85;;;15.00;1.00;;;;;;5037046;28;20534;-71
2023/12/23 01:31:52;;;;;;;11.18;2.88;;;14.90;1.00;;;;;;5037629;28;20037;-71
2023/12/23 01:34:18;;;;;;;10.05;2.78;;;15.10;1.00;;;;;;5038777;28;20037;-71
2023/12/23 01:36:43;;;;;;;20.08;2.97;;;15.10;1.00;;;;;;5036823;28;20103;-72
2023/12/23 01:39:09;;;;;;;13.70;2.72;;;15.10;1.00;;;;;;5036966;28;20128;-71
2023/12/23 01:41:34;;;;;;;19.55;3.25;;;14.80;1.00;;;;;;5036558;28;20083;-71
2023/12/23 01:44:00;;;;;;;13.43;2.63;;;15.00;1.00;;;;;;5036956;28;20090;-71
2023/12/23 01:46:26;;;;;;;10.32;1.85;;;15.10;1.00;;;;;;5036678;28;20525;-69
2023/12/23 01:48:53;;;;;;;12.23;2.75;;;15.00;1.00;;;;;;5036721;28;20419;-70
2023/12/23 01:51:19;;;;;;;10.48;1.75;;;;;;;;;;5036046;28;20041;-71
2023/12/23 01:53:45;;;;;;;10.93;2.28;;;15.20;1.00;;;;;;5036683;28;20045;-71
2023/12/23 01:56:11;;;;;;;10.85;1.90;;;15.20;1.00;;;;;;5036790;28;20052;-70
2023/12/23 01:58:37;;;;;;;17.08;2.40;;;15.30;1.00;;;;;;5036675;28;20041;-71
2023/12/23 02:01:03;;;;;;;7.63;1.52;;;15.20;1.00;;;;;;5019618;28;20037;-71
2023/12/23 02:03:30;;;;;;;11.60;1.52;;;15.10;1.00;;;;;;5036434;28;20041;-72
2023/12/23 02:05:56;;;;;;;10.95;1.50;;;14.80;1.00;;;;;;5036560;28;20472;-68
2023/12/23 02:08:22;;;;;;;14.85;1.95;;;15.00;1.00;;;;;;5036432;28;20099;-70
2023/12/23 02:10:53;;;;;;;9.13;1.80;;;14.70;1.00;;;;;;5036352;28;20033;-71
2023/12/23 02:13:25;;;;;;;14.68;1.98;;;14.80;1.00;;;;;;5036114;28;20086;-71
2023/12/23 02:15:52;;;;;;;7.90;2.05;;;14.60;1.00;;;;;;5036224;28;20045;-71
2023/12/23 02:18:19;;;;;;;8.75;1.75;;;15.00;1.00;;;;;;5036410;28;20045;-71
2023/12/23 02:20:49;;;;;;;9.27;1.63;;;14.80;1.00;;;;;;5036299;28;20106;-71
2023/12/23 02:23:15;;;;;;;6.10;1.50;;;14.80;1.00;;;;;;5035604;28;20500;-71
2023/12/23 02:25:42;;;;;;;10.25;1.35;;;14.80;1.00;;;;;;5034767;28;20039;-70
2023/12/23 02:28:11;;;;;;;9.98;1.50;;;14.90;1.00;;;;;;5036280;28;20151;-71
2023/12/23 02:30:41;;;;;;;6.53;1.80;;;14.80;1.00;;;;;;5036472;28;20384;-71
2023/12/23 02:33:07;;;;;;;14.57;1.63;;;14.70;1.00;;;;;;5018907;28;20091;-70
2023/12/23 02:35:33;;;;;;;8.35;1.73;;;14.70;1.00;;;;;;5036071;28;20052;-71
2023/12/23 02:37:58;;;;;;;10.00;1.55;;;14.60;1.00;;;;;;5036195;28;20080;-71
2023/12/23 02:40:24;;;;;;;10.55;1.83;;;14.80;1.00;;;;;;5035830;28;20067;-71
2023/12/23 02:42:50;;;;;;;6.30;1.85;;;14.60;2.90;;;;;;5037589;28;20041;-71
2023/12/23 02:45:15;;;;;;;7.00;1.52;;;14.60;4.10;;;;;;5035808;28;20310;-71
2023/12/23 02:47:41;;;;;;;7.75;2.08;;;14.70;5.70;;;;;;5035715;28;20052;-71
2023/12/23 02:50:07;;;;;;;7.72;1.50;;;15.20;9.40;;;;;;5035840;28;20037;-71
2023/12/23 02:52:32;;;;;;;9.35;3.20;;;14.70;12.60;;;;;;5034953;28;20033;-72
2023/12/23 02:54:58;;;;;;;11.95;1.95;;;14.80;13.40;;;;;;5035403;28;20041;-71
2023/12/23 02:57:24;;;;;;;6.18;2.15;;;14.40;14.30;;;;;;5035796;28;20125;-70
2023/12/23 02:59:49;;;;;;;7.95;1.73;;;14.80;16.40;;;;;;5035563;28;20094;-71
2023/12/23 03:02:15;;;;;;;5.63;1.50;;;14.70;18.50;;;;;;5018400;28;20139;-70
2023/12/23 03:04:40;;;;;;;12.35;1.98;;;14.60;18.20;;;;;;5035141;28;20095;-71
2023/12/23 03:07:06;;;;;;;13.45;3.00;;;14.50;19.00;;;;;;5035264;28;20111;-70
2023/12/23 03:09:31;;;;;;;6.55;2.28;;;15.20;22.00;;;;;;5035250;28;20111;-72
2023/12/23 03:11:57;;;;;;;12.07;2.03;;;14.70;24.10;;;;;;5018012;28;20037;-71
2023/12/23 03:14:23;;;;;;;14.35;2.92;;;14.40;23.80;;;;;;5018553;28;20044;-70
2023/12/23 03:16:48;;;;;;;12.15;2.20;;;14.40;24.30;;;;;;5053038;28;20032;-71
2023/12/23 03:19:14;;;;;;;10.27;1.70;;;14.60;26.90;;;;;;5035016;28;20080;-71
2023/12/23 03:21:44;;;;;;;5.78;1.45;;;14.90;29.10;;;;;;5034436;28;20056;-70
2023/12/23 03:24:10;;;;;;;15.18;1.50;;;15.20;29.60;;;;;;5035222;28;20351;-71
2023/12/23 03:26:37;;;;;;;7.72;1.95;;;14.50;30.30;;;;;;5034821;28;20454;-68
2023/12/23 03:29:05;;;;;;;8.55;1.67;;;15.10;31.50;;;;;;5035134;28;20397;-71
2023/12/23 03:31:30;;;;;;;10.23;2.00;;;14.70;35.50;;;;;;5017789;28;20037;-72
2023/12/23 03:33:56;;;;;;;8.95;1.60;;;14.90;32.30;;;;;;5018296;28;20037;-71
2023/12/23 03:36:21;;;;;;;9.43;1.40;;;14.50;31.50;;;;;;5017911;28;20076;-71
2023/12/23 03:38:47;;;;;;;10.73;1.70;;;15.30;34.00;;;;;;5034983;28;20048;-71
2023/12/23 03:41:12;;;;;;;4.75;1.30;;;14.60;35.00;;;;;;5034168;28;20400;-71
2023/12/23 03:43:38;;;;;;;4.32;1.13;;;14.90;35.20;;;;;;5034526;28;20095;-71
2023/12/23 03:46:04;;;;;;;12.02;2.20;;;14.50;35.60;;;;;;5034520;28;20041;-71
2023/12/23 03:48:29;;;;;;;9.23;1.30;;;15.40;37.70;;;;;;5034371;28;20040;-71
2023/12/23 03:50:55;;;;;;;5.93;1.65;;;14.60;37.00;;;;;;5033881;28;20488;-71
2023/12/23 03:53:21;;;;;;;11.20;2.20;;;15.00;38.50;;;;;;5034409;28;20049;-71
2023/12/23 03:55:46;;;;;;;14.85;1.65;;;14.60;38.90;;;;;;5018082;28;20536;-71
2023/12/23 03:58:12;;;;;;;10.18;1.58;;;14.50;38.00;;;;;;5034463;28;20466;-71
2023/12/23 04:00:37;;;;;;;8.63;1.40;;;14.90;41.10;;;;;;5034359;28;20037;-72
2023/12/23 04:03:03;;;;;;;7.50;1.80;;;14.70;40.50;;;;;;5033524;28;20429;-71
2023/12/23 04:05:29;;;;;;;13.95;1.77;;;14.50;41.90;;;;;;5034072;28;20098;-71
2023/12/23 04:07:54;;;;;;;6.15;1.27;;;14.60;39.90;;;;;;5034330;28;20428;-71
2023/12/23 04:10:20;;;;;;;4.40;1.10;;;15.00;42.40;;;;;;5034454;28;20127;-72
2023/12/23 04:12:46;;;;;;;5.45;1.27;;;14.50;43.90;;;;;;5033900;28;20120;-71
2023/12/23 04:15:11;;;;;;;2.33;1.00;;;14.30;44.20;;;;;;5034265;28;20041;-71
2023/12/23 04:17:39;;;;;;;4.07;1.35;;;14.70;43.50;;;;;;5034039;28;20492;-71
2023/12/23 04:20:05;;;;;;;7.13;1.50;;;14.80;46.00;;;;;;5033971;28;20280;-71
2023/12/23 04:22:31;;;;;;;5.22;1.40;;;14.80;47.30;;;;;;5033279;28;20052;-71
2023/12/23 04:24:57;;;;;;;7.80;1.98;;;15.40;47.80;;;;;;5033755;28;20032;-71
2023/12/23 04:27:22;;;;;;;4.25;1.08;;;14.90;49.10;;;;;;5034183;28;20120;-71
2023/12/23 04:29:48;;;;;;;10.13;2.45;;;14.50;47.80;;;;;;5033954;28;20033;-71
2023/12/23 04:32:13;;;;;;;6.22;1.13;;;14.70;50.20;;;;;;5016952;28;20037;-71
2023/12/23 04:34:39;;;;;;;3.30;1.15;;;14.70;50.20;;;;;;5052051;28;20090;-71
2023/12/23 04:37:05;;;;;;;4.38;0.90;;;14.80;51.40;;;;;;5033722;28;20045;-70
2023/12/23 04:39:30;;;;;;;4.30;1.20;;;14.70;50.40;;;;;;5017280;28;20041;-71
2023/12/23 04:41:56;;;;;;;4.28;1.10;;;14.30;53.50;;;;;;5033092;28;20063;-70
2023/12/23 04:44:22;;;;;;;2.85;1.20;;;15.00;53.60;;;;;;5033505;28;20068;-69
2023/12/23 04:46:49;;;;;;;2.90;1.17;;;14.90;53.70;;;;;;5033567;28;20037;-71
2023/12/23 04:49:14;;;;;;;3.10;1.05;;;14.60;55.20;;;;;;5032839;28;20044;-71
2023/12/23 04:51:43;;;;;;;3.90;0.95;;;14.60;53.80;;;;;;5033279;28;20123;-71
2023/12/23 04:54:10;;;;;;;1.58;0.57;;;14.70;56.70;;;;;;5017123;28;20041;-70
2023/12/23 04:56:35;;;;;;;1.00;0.60;;;14.40;56.20;;;;;;5033436;28;20048;-71
2023/12/23 04:59:01;;;;;;;2.90;1.17;;;14.60;54.40;;;;;;5033547;28;20063;-71
2023/12/23 05:01:26;;;;;;;5.25;1.20;;;14.90;60.30;;;;;;5016497;28;20072;-72
2023/12/23 05:03:52;;;;;;;2.13;0.73;;;14.40;55.80;;;;;;5033424;28;20121;-71
2023/12/23 05:06:18;;;;;;;4.10;1.27;;;14.70;56.70;;;;;;5034172;28;20047;-71
2023/12/23 05:08:43;;;;;;;2.13;0.70;;;14.70;58.90;;;;;;5033739;28;20037;-71
2023/12/23 05:11:09;;;;;;;2.47;0.73;;;14.60;59.00;;;;;;5033110;28;20078;-71
2023/12/23 05:13:35;;;;;;;0.95;0.63;;;14.40;59.10;;;;;;5033215;28;20040;-71
2023/12/23 05:16:00;;;;;;;1.95;0.73;;;14.40;59.70;;;;;;5033587;28;20040;-68
2023/12/23 05:18:26;;;;;;;1.75;0.77;;;14.40;58.10;;;;;;5033263;28;20507;-71
2023/12/23 05:20:52;;;;;;;1.58;0.90;;;14.60;60.90;;;;;;5033411;28;20055;-71
2023/12/23 05:23:17;;;;;;;1.00;0.88;;;14.40;61.30;;;;;;5050500;28;20068;-72
2023/12/23 05:25:43;;;;;;;2.30;0.95;;;14.90;60.60;;;;;;5033191;28;20432;-71
2023/12/23 05:28:08;;;;;;;1.83;0.98;;;14.70;59.70;;;;;;5016950;28;20140;-71
2023/12/23 05:30:35;;;;;;;1.27;0.82;;;15.10;63.00;;;;;;5016863;28;20033;-71
2023/12/23 05:33:00;;;;;;;3.83;0.90;;;15.00;62.10;;;;;;5032526;28;20045;-71
2023/12/23 05:35:26;;;;;;;1.35;0.90;;;15.10;63.90;;;;;;5033113;28;20063;-71
2023/12/23 05:37:52;;;;;;;1.27;0.77;;;15.00;63.50;;;;;;5033175;28;20123;-71
2023/12/23 05:40:17;;;;;;;2.47;0.90;;;14.70;64.00;;;;;;5033470;28;20053;-69
2023/12/23 05:42:43;;;;;;;2.60;1.05;;;15.00;64.30;;;;;;5015987;28;20499;-71
2023/12/23 05:45:09;;;;;;;1.58;0.98;;;14.90;63.70;;;;;;5033069;28;20059;-71
2023/12/23 05:47:34;;;;;;;1.73;0.90;;;14.50;64.40;;;;;;5032997;28;20064;-71
2023/12/23 05:50:00;;;;;;;2.95;1.00;;;15.40;64.80;;;;;;5033342;28;20047;-71
2023/12/23 05:52:26;;;;;;;3.75;1.52;;;14.80;64.90;;;;;;5032522;28;20033;-71
2023/12/23 05:54:51;;;;;;;1.00;0.80;;;14.60;63.80;;;;;;5032919;28;20047;-71
2023/12/23 05:57:17;;;;;;;1.20;0.75;;;14.60;66.50;;;;;;5033045;28;20094;-72
2023/12/23 05:59:42;;;;;;;1.30;0.75;;;15.10;69.20;;;;;;5034471;28;20083;-71
2023/12/23 06:02:08;;;;;;;4.85;1.55;;;15.20;73.30;;;;;;5035887;28;20561;-71
2023/12/23 06:04:34;;;;;;;4.32;1.90;;;15.00;67.60;;;;;;5019818;28;20041;-71
2023/12/23 06:06:59;;;;;;;9.18;3.15;;;15.70;73.70;;;;;;5036500;28;20412;-72
2023/12/23 06:09:25;;;;;;;8.95;2.38;;;15.70;75.50;;;;;;5020257;28;20029;-71
2023/12/23 06:11:51;;;;;;;9.48;2.95;;;15.40;78.50;;;;;;5035602;28;20068;-71
2023/12/23 06:14:17;;;;;;;11.55;2.72;;;15.30;77.80;;;;;;5036379;28;20138;-70
2023/12/23 06:16:42;;;;;;;7.65;2.78;;;15.90;79.90;;;;;;5036122;28;20496;-71
2023/12/23 06:19:08;;;;;;;12.25;3.45;;;15.50;79.30;;;;;;5036215;28;20067;-72
2023/12/23 06:21:34;;;;;;;8.13;3.05;;;15.50;82.70;;;;;;5035671;28;20041;-71
2023/12/23 06:23:59;;;;;;;10.95;2.90;;;15.30;79.80;;;;;;5036218;28;20048;-71
2023/12/23 06:26:25;;;;;;;8.50;2.17;;;15.60;82.20;;;;;;5036293;28;20040;-69
2023/12/23 06:28:51;;;;;;;8.82;2.80;;;15.50;81.30;;;;;;5054109;28;20045;-71
2023/12/23 06:31:17;;;;;;;8.85;1.98;;;15.70;84.30;;;;;;5035389;28;20115;-71
2023/12/23 06:33:42;;;;;;;8.65;2.05;;;15.70;83.30;;;;;;5035943;28;20040;-71
2023/12/23 06:36:09;;;;;;;11.15;1.92;;;;;;;;;;5036147;28;20052;-70
2023/12/23 06:38:35;;;;;;;8.23;2.85;;;15.90;84.30;;;;;;5035911;28;20047;-71
2023/12/23 06:41:02;;;;;;;9.60;2.17;;;16.20;84.90;;;;;;5018921;28;20040;-71
2023/12/23 06:43:28;;;;;;;10.05;2.15;;;16.10;85.50;;;;;;5035861;28;20421;-71
2023/12/23 06:45:54;;;;;;;13.15;2.75;;;15.90;86.40;;;;;;5035622;28;20523;-71
2023/12/23 06:48:20;;;;;;;4.95;1.75;;;15.80;83.60;;;;;;5035549;28;20037;-71
2023/12/23 06:50:45;;;;;;;7.18;1.88;;;15.90;86.60;;;;;;5053559;28;20116;-71
2023/12/23 06:53:11;;;;;;;6.85;1.63;;;15.60;85.30;;;;;;5035039;28;20521;-71
2023/12/23 06:55:36;;;;;;;3.28;1.30;;;15.90;84.10;;;;;;5035746;28;20524;-71
2023/12/23 06:58:02;;;;;;;4.20;1.60;;;16.20;85.40;;;;;;5035806;28;20041;-71
2023/12/23 07:00:27;;;;;;;4.45;1.15;;;15.80;84.70;;;;;;5035457;28;20039;-71
2023/12/23 07:02:54;;;;;;;5.18;1.30;;;15.50;82.90;;;;;;5034724;28;20493;-71
2023/12/23 07:05:20;;;;;;;4.78;1.85;;;15.40;81.60;;;;;;5035506;28;20090;-71
2023/12/23 07:07:45;;;;;;;7.20;1.88;;;15.80;85.40;;;;;;5035561;28;20041;-71
2023/12/23 07:10:13;;;;;;;4.07;1.25;;;15.80;82.10;;;;;;5035330;28;20102;-70
2023/12/23 07:12:39;;;;;;;2.97;0.93;;;15.60;85.00;;;;;;5034135;28;20041;-71
2023/12/23 07:15:06;;;;;;;3.97;1.10;;;16.00;84.50;;;;;;5035146;28;20048;-70
2023/12/23 07:17:32;;;;;;;2.05;1.20;;;15.30;83.60;;;;;;5018571;28;20119;-71
2023/12/23 07:19:58;;;;;;;1.75;0.88;;;15.70;81.20;;;;;;5035340;28;20123;-71
2023/12/23 07:22:23;;;;;;;4.93;1.35;;;15.20;83.40;;;;;;5034477;28;20037;-71
2023/12/23 07:24:49;;;;;;;3.55;1.50;;;15.60;84.30;;;;;;5034895;28;20479;-71
2023/12/23 07:27:15;;;;;;;4.35;1.38;;;15.70;84.70;;;;;;5035108;28;20128;-70
2023/12/23 07:29:41;;;;;;;5.57;1.40;;;15.90;84.60;;;;;;5038450;28;20072;-71
2023/12/23 07:32:07;;;;;;;2.63;1.13;;;15.40;83.20;;;;;;5035545;28;20045;-71
2023/12/23 07:34:33;;;;;;;2.28;1.20;;;15.70;83.20;;;;;;5034807;28;20388;-70
2023/12/23 07:36:59;;;;;;;3.10;1.17;;;15.60;81.80;;;;;;5018305;28;20037;-71
2023/12/23 07:39:24;;;;;;;1.73;1.10;;;15.20;78.40;;;;;;5034909;28;20039;-70
2023/12/23 07:41:50;;;;;;;1.95;1.00;;;15.20;79.50;;;;;;5034439;28;20049;-71
2023/12/23 07:44:15;;;;;;;1.30;1.13;;;15.30;79.20;;;;;;5018295;28;20088;-71
2023/12/23 07:46:41;;;;;;;1.73;1.25;;;15.30;79.30;;;;;;5018392;28;20040;-71
2023/12/23 07:49:07;;;;;;;1.40;1.10;;;15.10;75.60;;;;;;5052587;28;20043;-70
2023/12/23 07:51:33;;;;;;;1.15;0.95;;;15.10;81.10;;;;;;5034302;28;20041;-71
2023/12/23 07:53:59;;;;;;;1.40;1.20;;;15.70;78.80;;;;;;5034451;28;20032;-71
2023/12/23 07:56:25;;;;;;;1.35;1.05;;;15.60;79.00;;;;;;5034298;28;20068;-71
2023/12/23 07:58:51;;;;;;;0.82;0.82;;;14.90;77.70;;;;;;5034567;28;20103;-70
2023/12/23 08:01:16;;;;;;;2.47;1.05;;;15.30;77.50;;;;;;5051851;28;20072;-71
2023/12/23 08:03:42;;;;;;;1.55;1.20;;;15.00;75.90;;;;;;5052001;28;20060;-71
2023/12/23 08:06:08;;;;;;;2.47;1.20;;;;;;;;;;5034067;28;20086;-70
2023/12/23 08:08:34;;;;;;;1.50;1.40;;;15.20;77.00;;;;;;5034260;28;20033;-71
2023/12/23 08:10:59;;;;;;;1.95;1.33;;;15.50;78.50;;;;;;5033874;28;20041;-70
2023/12/23 08:13:28;;;;;;;3.40;2.45;;;14.90;77.70;;;;;;5034059;28;20037;-71
2023/12/23 08:15:54;;;;;;;4.40;2.00;;;15.10;77.50;;;;;;5017524;28;20052;-71
2023/12/23 08:18:20;;;;;;;1.88;1.42;;;15.60;78.00;;;;;;5034215;28;20037;-71
2023/12/23 08:20:45;;;;;;;1.95;1.40;;;14.90;77.00;;;;;;5017585;28;20041;-71
2023/12/23 08:23:11;;;;;;;5.35;1.60;;;;;;;;;;5032837;28;20453;-70
2023/12/23 08:25:37;;;;;;;2.53;1.50;;;14.90;74.60;;;;;;5017362;28;20037;-71
2023/12/23 08:28:03;;;;;;;2.10;1.58;;;14.80;73.90;;;;;;5017362;28;20455;-70
2023/12/23 08:30:28;;;;;;;1.25;1.08;;;14.80;75.30;;;;;;5017471;28;20151;-71
2023/12/23 08:32:54;;;;;;;1.80;1.40;;;14.80;74.90;;;;;;5033256;28;20111;-70
2023/12/23 08:35:20;;;;;;;3.50;1.13;;;14.90;75.40;;;;;;5033984;28;20037;-71
2023/12/23 08:37:46;;;;;;;2.97;1.35;;;15.20;75.00;;;;;;5033788;28;20037;-70
2023/12/23 08:40:11;;;;;;;1.85;1.27;;;14.70;71.60;;;;;;5033784;28;20504;-70
2023/12/23 08:42:37;;;;;;;2.22;1.00;;;14.30;72.80;;;;;;5033382;28;20079;-71
2023/12/23 08:45:03;;;;;;;1.40;1.30;;;14.50;73.50;;;;;;5033725;28;20044;-71
2023/12/23 08:47:29;;;;;;;1.00;0.90;;;14.40;72.20;;;;;;5034023;28;20425;-70
2023/12/23 08:49:54;;;;;;;1.75;1.05;;;14.90;72.80;;;;;;5033350;28;20032;-71
2023/12/23 08:52:20;;;;;;;0.80;0.80;;;13.90;72.70;;;;;;5033082;28;20456;-71
2023/12/23 08:54:46;;;;;;;1.52;1.05;;;12.50;71.50;;;;;;5033453;28;20040;-71
2023/12/23 08:57:11;;;;;;;2.22;1.40;;;12.80;71.90;;;;;;5033549;28;20041;-71
2023/12/23 08:59:37;;;;;;;3.28;1.40;;;12.60;70.90;;;;;;5033427;28;20047;-72
2023/12/23 09:02:03;;;;;;;2.47;1.50;;;12.70;68.90;;;;;;5033204;28;20037;-70
2023/12/23 09:04:29;;;;;;;2.15;1.45;;;12.50;67.90;;;;;;5033397;28;20311;-70
2023/12/23 09:06:56;;;;;;;2.95;2.22;;;12.60;66.60;;;;;;5016996;28;20507;-71
2023/12/23 09:09:21;;;;;;;2.00;1.45;;;12.70;69.40;;;;;;5033738;28;20048;-70
2023/12/23 09:11:47;;;;;;;3.67;1.77;;;12.50;69.30;;;;;;5016382;28;20041;-71
2023/12/23 09:14:14;;;;;;;1.67;1.30;;;12.90;67.50;;;;;;5033648;28;20049;-68
2023/12/23 09:16:40;;;;;;;2.30;1.48;;;12.90;68.10;;;;;;5033323;28;20056;-71
2023/12/23 09:19:06;;;;;;;2.25;1.42;;;12.60;65.80;;;;;;5016972;28;20044;-70
2023/12/23 09:21:32;;;;;;;3.17;1.95;;;12.60;68.80;;;;;;5032948;28;20132;-71
2023/12/23 09:23:58;;;;;;;1.65;1.40;;;12.70;67.20;;;;;;5016853;28;20773;-71
2023/12/23 09:26:24;;;;;;;2.85;1.77;;;12.80;66.40;;;;;;5033085;28;20451;-71
2023/12/23 09:28:51;;;;;;;1.70;1.35;;;12.80;68.20;;;;;;5033273;28;20172;-70
2023/12/23 09:31:16;;;;;;;1.92;1.50;;;12.80;68.50;;;;;;5016233;28;20036;-71
2023/12/23 09:33:42;;;;;;;1.60;1.50;;;12.60;65.20;;;;;;5033478;28;20041;-71
2023/12/23 09:36:07;;;;;;;1.42;1.13;;;12.80;66.00;;;;;;5037007;28;20083;-70
2023/12/23 09:38:33;;;;;;;2.25;1.30;;;12.60;68.70;;;;;;5054982;28;20404;-70
2023/12/23 09:40:59;;;;;;;1.30;1.17;;;12.70;68.80;;;;;;5036337;28;20496;-70
2023/12/23 09:43:25;;;;;;;2.70;1.48;;;12.70;67.70;;;;;;5036689;28;20127;-71
2023/12/23 09:45:51;;;;;;;3.60;2.95;;;13.00;68.50;;;;;;5054839;28;20043;-71
2023/12/23 09:48:18;;;;;;;7.32;3.45;;;12.80;68.60;;;;;;5036840;28;20095;-70
2023/12/23 09:50:44;;;;;;;3.95;2.85;;;12.80;68.00;;;;;;5036859;28;20037;-71
2023/12/23 09:53:13;;;;;;;4.57;3.15;;;12.80;68.10;;;;;;5036054;28;20114;-70
2023/12/23 09:55:40;;;;;;;3.45;2.45;;;13.20;68.80;;;;;;5036692;28;20400;-71
2023/12/23 09:58:05;;;;;;;2.38;2.05;;;12.80;68.90;;;;;;5036548;28;20033;-70
2023/12/23 10:00:32;;;;;;;2.75;1.80;;;12.60;69.00;;;;;;5036595;28;20052;-70
2023/12/23 10:02:58;;;;;;;4.10;2.47;;;12.70;68.00;;;;;;5036150;28;20330;-70
2023/12/23 10:05:27;;;;;;;2.95;2.35;;;12.60;68.50;;;;;;5036379;28;20566;-71
2023/12/23 10:07:59;;;;;;;2.47;1.80;;;12.60;68.50;;;;;;5036360;28;20084;-71
2023/12/23 10:10:31;;;;;;;3.05;2.40;;;12.40;65.20;;;;;;5020305;28;20029;-72
2023/12/23 10:12:57;;;;;;;3.10;1.88;;;12.60;66.20;;;;;;5054847;28;20064;-71
2023/12/23 10:15:23;;;;;;;3.40;2.00;;;12.60;69.40;;;;;;5036496;28;20512;-71
2023/12/23 10:17:48;;;;;;;4.65;2.15;;;12.60;69.50;;;;;;5020026;28;20036;-70
2023/12/23 10:20:14;;;;;;;5.13;2.60;;;12.60;70.20;;;;;;5036277;28;20489;-70
2023/12/23 10:22:46;;;;;;;5.32;2.25;;;12.90;71.00;;;;;;5035650;28;20055;-71
2023/12/23 10:25:13;;;;;;;8.75;2.95;;;12.60;70.60;;;;;;5054155;28;20075;-70
2023/12/23 10:27:43;;;;;;;7.10;2.97;;;12.80;74.00;;;;;;5036128;28;20045;-71
2023/12/23 10:30:10;;;;;;;8.35;2.85;;;12.90;73.60;;;;;;5036412;28;20033;-71
2023/12/23 10:32:37;;;;;;;12.85;2.70;;;13.10;76.20;;;;;;5035849;28;20045;-71
2023/12/23 10:35:06;;;;;;;8.52;2.25;;;12.90;73.80;;;;;;5019449;28;20552;-70
2023/12/23 10:37:34;;;;;;;8.43;2.28;;;13.30;78.20;;;;;;5035859;28;20052;-71
2023/12/23 10:40:23;;;;;;;15.68;2.95;;;13.50;75.10;;;;;;5019392;28;20041;-72
2023/12/23 10:42:50;;;;;;;17.20;3.10;;;13.20;80.00;;;;;;5035118;28;20086;-69
2023/12/23 10:45:16;;;;;;;15.32;2.85;;;13.20;80.50;;;;;;5035482;28;20095;-71
2023/12/23 10:47:43;;;;;;;15.18;3.22;;;13.40;81.10;;;;;;5034994;28;20071;-71
2023/12/23 10:50:10;;;;;;;11.32;3.17;;;13.40;82.10;;;;;;5036016;28;20044;-71
2023/12/23 10:52:36;;;;;;;14.90;2.97;;;13.40;82.60;;;;;;5018566;28;20043;-70
2023/12/23 10:55:03;;;;;;;18.38;3.15;;;13.50;84.00;;;;;;5018852;28;20041;-71
2023/12/23 10:57:31;;;;;;;19.40;3.78;;;13.80;85.60;;;;;;5035597;28;20047;-71
2023/12/23 10:59:57;;;;;;;15.93;3.83;;;13.70;86.30;;;;;;5035802;28;20053;-68
2023/12/23 11:02:34;;;;;;;23.75;4.60;;;14.00;88.50;;;;;;5035049;28;20047;-71
2023/12/23 11:05:05;;;;;;;20.13;3.95;;;13.90;89.00;;;;;;5035165;28;20045;-71
2023/12/23 11:07:46;;;;;;;22.20;4.03;;;13.80;86.00;;;;;;5035349;28;20045;-70
2023/12/23 11:10:16;;;;;;;22.17;3.60;;;;;;;;;;5018859;28;20040;-71
2023/12/23 11:12:43;;;;;;;21.17;3.88;;;;;;;;;;5052292;28;20151;-70
2023/12/23 11:15:09;;;;;;;16.20;3.58;;;;;;;;;;5035164;28;20049;-71
2023/12/23 11:17:40;;;;;;;19.33;3.58;;;14.50;95.10;;;;;;5018915;28;20127;-71
2023/12/23 11:20:10;;;;;;;15.25;2.83;;;;;;;;;;5035189;28;20037;-71
2023/12/23 11:22:40;;;;;;;19.52;3.35;;;14.60;94.80;;;;;;5034438;28;20055;-71
2023/12/23 11:25:42;;;;;;;15.23;3.33;;;14.60;94.00;;;;;;5034712;28;20072;-70
2023/12/23 11:28:09;;;;;;;21.80;3.28;;;14.70;94.10;;;;;;5035061;28;20146;-70
2023/12/23 11:30:40;;;;;;;23.92;4.85;;;;;;;;;;5034853;28;20147;-71
2023/12/23 11:33:07;;;;;;;13.45;3.65;;;14.50;95.90;;;;;;5052213;28;20178;-72
2023/12/23 11:35:37;;;;;;;16.33;2.90;;;14.70;95.50;;;;;;5052609;28;20503;-71
2023/12/23 11:38:02;;;;;;;11.32;3.45;;;14.40;93.90;;;;;;5034726;28;20040;-71
2023/12/23 11:40:30;;;;;;;13.38;2.25;;;14.30;94.70;;;;;;5052764;28;20033;-70
2023/12/23 11:42:56;;;;;;;13.73;3.05;;;14.50;93.10;;;;;;5034299;28;20041;-71
2023/12/23 11:45:22;;;;;;;11.10;2.47;;;14.40;92.70;;;;;;5035116;28;20041;-71
2023/12/23 11:47:49;;;;;;;14.48;3.15;;;14.50;93.30;;;;;;5034537;28;20512;-71
2023/12/23 11:50:16;;;;;;;16.00;2.60;;;14.80;92.60;;;;;;5034721;28;20036;-72
2023/12/23 11:52:44;;;;;;;13.65;3.20;;;14.60;94.50;;;;;;5034059;28;20048;-71
2023/12/23 11:55:10;;;;;;;16.15;2.35;;;14.80;95.00;;;;;;5017880;28;20416;-71
2023/12/23 11:57:35;;;;;;;17.55;2.80;;;14.70;95.30;;;;;;5034405;28;20049;-71
2023/12/23 12:00:03;;;;;;;21.08;2.50;;;14.70;94.40;;;;;;5017988;28;20458;-71
2023/12/23 12:02:29;;;;;;;16.00;4.05;;;14.50;95.20;;;;;;5033679;28;20094;-71
2023/12/23 12:04:54;;;;;;;21.42;4.00;;;14.60;94.40;;;;;;5034299;28;20131;-70
2023/12/23 12:07:21;;;;;;;14.77;3.75;;;14.80;94.50;;;;;;5034204;28;20029;-72
2023/12/23 12:09:47;;;;;;;18.13;3.67;;;15.00;94.90;;;;;;5034448;28;20408;-71
2023/12/23 12:12:13;;;;;;;15.30;2.72;;;14.80;94.20;;;;;;5032942;28;20039;-71
2023/12/23 12:14:39;;;;;;;17.75;2.58;;;14.40;91.60;;;;;;5070708;28;20068;-71
2023/12/23 12:17:06;;;;;;;16.23;2.95;;;15.50;94.30;;;;;;5053554;28;20095;-72
2023/12/23 12:19:32;;;;;;;22.88;3.92;;;14.70;93.30;;;;;;5051141;28;20049;-72
2023/12/23 12:21:58;;;;;;;23.13;3.75;;;14.80;94.90;;;;;;5052548;28;20036;-71
2023/12/23 12:24:27;;;;;;;12.93;3.08;;;;;;;;;;5053632;28;20123;-69
2023/12/23 12:26:53;;;;;;;29.38;5.88;;;;;;;;;;5053775;28;20040;-71
2023/12/23 12:29:23;;;;;;;13.88;2.88;;;;;;;;;;5053829;28;20059;-71
2023/12/23 12:31:57;;;;;;;22.33;3.80;;;15.10;93.20;;;;;;5053011;28;20032;-71
2023/12/23 12:34:23;;;;;;;17.83;3.63;;;15.20;93.10;;;;;;5054025;28;20274;-69
2023/12/23 12:36:53;;;;;;;20.27;4.38;;;;;;;;;;5053759;28;20036;-71
2023/12/23 12:39:19;;;;;;;26.00;4.30;;;;;;;;;;5053417;28;20044;-71
2023/12/23 12:41:46;;;;;;;18.52;3.72;;;;;;;;;;5049944;28;20048;-72
2023/12/23 12:44:12;;;;;;;30.83;5.38;;;;;;;;;;5053274;28;20083;-70
2023/12/23 12:46:38;;;;;;;19.02;3.95;;;;;;;;;;5052774;28;20044;-71